Terminal Aerodrome Forecast
Issued by NWS

Home | Current Version | Previous Version | Text Only | Print | Product List | Glossary On
Versions: 1 2 3 4 5 6 7 8 9 10 11 12 13 14 15 16 17 18 19 20 21 22 23 24 25 26 27 28 29 30 31 32 33 34 35 36 37
298
FTUS43 KDVN 271452 AAB
TAFBRL
TAF AMD
KBRL 271452Z 2715/2812 08012G22KT 3SM BR OVC004
     FM272000 09012G20KT 4SM -TSRA OVC015CB
     FM280200 06008KT P6SM VCSH OVC012=

USA.gov is the U.S. government's official web portal to all federal, state and local government web resources and services.